Muscadine, Alabama
Current Conditions -  °F | °C
As of 3:35 PM on Thursday 18 Dec 2014 (Local Time) from KCTJ Reporting Station
Overcast Overcast  
Wind Chill: 52°   Ceiling: 4600
Heat Index: 52°   Visibility: 10mi
Dew Point: 36°   Wind: 3mph
Humidity: 54%   Direction: 300°WNW
Pressure: 30.14"   Gusts: NA
Location:  33.73°N, 85.39°W
Report Text: KCTJ 182135Z AUTO 30003KT 10SM BKN046 OVC090 11/02 A3014 RMK AO2
Loading
Personal Weather Stations






























Interactive Weather Map New forecast layout! Learn more

10-Day Weather Forecast

Advertisements
Track Severe Weather on mobile